Time;durP1;ratioP1;P1;durP2;ratioP2;P2;SDS_P1;SDS_P2;PMS_P1;PMS_P2;Temp;Humidity;BMP_temperature;BMP_pressure;BME280_temperature;BME280_humidity;BME280_pressure;Samples;Min_cycle;Max_cycle;Signal;HPM_P1;HPM_P2
2022/10/19 00:01:12;;;;;;;;;;;;;;;10.94;52.94;99432.11;1708330;84;21242;-80
2022/10/19 00:03:38;;;;;;;;;;;;;;;10.94;53.08;99426.84;1708247;82;20209;-81
2022/10/19 00:06:16;;;;;;;;;;;;;;;10.92;53.15;99427.37;1708278;82;20472;-81
2022/10/19 00:08:43;;;;;;;;;;;;;;;10.91;53.32;99428.27;1682099;84;20671;-82
2022/10/19 00:11:10;;;;;;;;;;;;;;;10.89;53.39;99423.53;1708542;82;20199;-81
2022/10/19 00:13:36;;;;;;;;;;;;;;;10.87;53.37;99412.20;1708351;84;21180;-80
2022/10/19 00:16:10;;;;;;;;;;;;;;;10.86;53.43;99414.42;1707968;82;20653;-80
2022/10/19 00:18:37;;;;;;;;;;;;;;;10.85;53.38;99404.36;1707921;82;20508;-80
2022/10/19 00:21:04;;;;;;;;;;;;;;;10.85;53.40;99396.94;1708059;84;20217;-79
2022/10/19 00:23:32;;;;;;;;;;;;;;;10.87;53.42;99395.09;1708137;83;20150;-80
2022/10/19 00:25:59;;;;;;;;;;;;;;;10.86;53.57;99394.69;1708106;84;21148;-81
2022/10/19 00:28:26;;;;;;;;;;;;;;;10.85;53.60;99390.36;1708497;84;20205;-79
2022/10/19 00:30:53;;;;;;;;;;;;;;;10.85;53.62;99383.77;1708308;84;20313;-81
2022/10/19 00:33:21;;;;;;;;;;;;;;;10.83;53.81;99376.41;1708186;84;20225;-80
2022/10/19 00:35:48;;;;;;;;;;;;;;;10.83;53.97;99376.41;1708392;84;20179;-79
2022/10/19 00:38:16;;;;;;;;;;;;;;;10.80;54.09;99375.20;1708083;84;21107;-81
2022/10/19 00:40:44;;;;;;;;;;;;;;;10.77;54.26;99371.74;1708247;84;20182;-81
2022/10/19 00:43:21;;;;;;;;;;;;;;;10.71;54.55;99366.73;1708237;84;20232;-82
2022/10/19 00:45:47;;;;;;;;;;;;;;;10.67;54.86;99354.59;1708660;84;20993;-81
2022/10/19 00:48:17;;;;;;;;;;;;;;;10.60;55.34;99357.06;1708138;84;21044;-81
2022/10/19 00:50:44;;;;;;;;;;;;;;;10.55;55.69;99353.27;1708458;82;21214;-81
2022/10/19 00:53:10;;;;;;;;;;;;;;;10.55;55.98;99352.42;1708297;83;20135;-80
2022/10/19 00:55:37;;;;;;;;;;;;;;;10.55;56.37;99340.59;1697246;84;20150;-80
2022/10/19 00:58:04;;;;;;;;;;;;;;;10.55;56.47;99340.59;1695676;84;20368;-81
2022/10/19 01:00:32;;;;;;;;;;;;;;;10.58;56.51;99336.06;1695719;84;20227;-82
2022/10/19 01:02:59;;;;;;;;;;;;;;;10.61;56.90;99316.69;1673897;84;21135;-82
2022/10/19 01:05:27;;;;;;;;;;;;;;;10.66;56.96;99321.31;1695301;84;20214;-81
2022/10/19 01:07:54;;;;;;;;;;;;;;;10.74;56.98;99321.89;1695518;84;20310;-80
2022/10/19 01:10:23;;;;;;;;;;;;;;;10.84;56.89;99318.88;1650964;84;20212;-78
2022/10/19 01:13:22;;;;;;;;;;;;;;;10.90;56.71;99316.02;1695793;84;20203;-79
2022/10/19 01:15:53;;;;;;;;;;;;;;;10.96;56.57;99319.27;1695439;84;21106;-81
2022/10/19 01:18:39;;;;;;;;;;;;;;;11.08;56.44;99311.34;1695520;84;20720;-79
2022/10/19 01:21:20;;;;;;;;;;;;;;;11.14;56.23;99304.49;1695390;84;20159;-81
2022/10/19 01:23:53;;;;;;;;;;;;;;;11.16;56.29;99305.75;1695712;84;20551;-82
2022/10/19 01:26:45;;;;;;;;;;;;;;;11.18;56.41;99303.06;1695470;84;20520;-81
2022/10/19 01:29:48;;;;;;;;;;;;;;;11.16;56.53;99309.70;1695966;84;21138;-81
2022/10/19 01:32:18;;;;;;;;;;;;;;;11.20;56.73;99298.61;1695540;84;20250;-81
2022/10/19 01:35:00;;;;;;;;;;;;;;;11.20;56.81;99295.98;1687983;84;20234;-81
2022/10/19 01:37:44;;;;;;;;;;;;;;;11.18;56.89;99292.52;1695597;84;20191;-81
2022/10/19 01:40:32;;;;;;;;;;;;;;;11.18;56.89;99300.42;1695580;84;20234;-82
2022/10/19 01:43:05;;;;;;;;;;;;;;;11.18;57.07;99293.41;1695640;84;21874;-81
2022/10/19 01:45:49;;;;;;;;;;;;;;;11.15;57.17;99294.38;1695862;84;20217;-80
2022/10/19 01:48:21;;;;;;;;;;;;;;;11.14;57.24;99292.64;1695506;84;20147;-81
2022/10/19 01:51:00;;;;;;;;;;;;;;;11.12;57.48;99289.22;1696002;84;20477;-81
2022/10/19 01:53:28;;;;;;;;;;;;;;;11.10;57.55;99281.01;1695484;84;21032;-81
2022/10/19 01:55:54;;;;;;;;;;;;;;;11.08;57.87;99277.12;1695600;84;21261;-81
2022/10/19 01:58:25;;;;;;;;;;;;;;;11.03;58.21;99267.23;1695519;84;20525;-81
2022/10/19 02:00:51;;;;;;;;;;;;;;;11.01;58.57;99268.20;1695711;84;20928;-82
2022/10/19 02:03:18;;;;;;;;;;;;;;;10.97;59.04;99270.10;1695720;84;21027;-81
2022/10/19 02:05:45;;;;;;;;;;;;;;;10.96;59.10;99261.36;1695464;84;20583;-81
2022/10/19 02:08:16;;;;;;;;;;;;;;;10.96;59.39;99267.06;1695621;84;21891;-82
2022/10/19 02:10:43;;;;;;;;;;;;;;;10.94;59.49;99261.00;1695332;84;20221;-80
2022/10/19 02:13:12;;;;;;;;;;;;;;;10.94;59.58;99267.59;1695611;84;20450;-81
2022/10/19 02:15:42;;;;;;;;;;;;;;;10.90;59.94;99268.64;1695627;84;20238;-80
2022/10/19 02:18:08;;;;;;;;;;;;;;;10.87;60.14;99266.97;1695852;84;20253;-82
2022/10/19 02:20:36;;;;;;;;;;;;;;;10.86;60.19;99260.45;1695291;84;21565;-81
2022/10/19 02:23:04;;;;;;;;;;;;;;;10.84;60.28;99257.03;1695785;84;20196;-81
2022/10/19 02:25:31;;;;;;;;;;;;;;;10.81;60.52;99260.66;1695604;84;20222;-80
2022/10/19 02:27:58;;;;;;;;;;;;;;;10.78;60.71;99252.88;1695788;84;20177;-80
2022/10/19 02:30:25;;;;;;;;;;;;;;;10.75;60.92;99253.84;1695473;84;20584;-80
2022/10/19 02:32:52;;;;;;;;;;;;;;;10.72;61.21;99251.80;1695668;84;21307;-80
2022/10/19 02:35:18;;;;;;;;;;;;;;;10.68;61.40;99253.70;1695700;84;20226;-81
2022/10/19 02:37:44;;;;;;;;;;;;;;;10.64;61.64;99257.81;1695655;84;20190;-80
2022/10/19 02:40:11;;;;;;;;;;;;;;;10.60;62.15;99262.34;1696184;84;20206;-81
2022/10/19 02:42:57;;;;;;;;;;;;;;;10.55;62.30;99261.67;1695742;84;20194;-80
2022/10/19 02:45:28;;;;;;;;;;;;;;;10.52;62.47;99263.09;1695734;84;21050;-81
2022/10/19 02:48:04;;;;;;;;;;;;;;;10.48;62.74;99262.36;1695564;84;20214;-81
2022/10/19 02:50:31;;;;;;;;;;;;;;;10.45;62.95;99253.73;1695723;84;20527;-82
2022/10/19 02:52:57;;;;;;;;;;;;;;;10.40;63.26;99245.54;1695644;84;20242;-81
2022/10/19 02:55:24;;;;;;;;;;;;;;;10.37;63.46;99247.00;1701862;83;20253;-82
2022/10/19 02:57:50;;;;;;;;;;;;;;;10.34;64.14;99252.38;1708266;82;21179;-79
2022/10/19 03:00:16;;;;;;;;;;;;;;;10.31;64.29;99248.50;1708603;84;20131;-80
2022/10/19 03:02:43;;;;;;;;;;;;;;;10.30;64.43;99257.30;1708176;84;20344;-81
2022/10/19 03:05:09;;;;;;;;;;;;;;;10.28;64.65;99247.77;1708490;84;20264;-81
2022/10/19 03:07:35;;;;;;;;;;;;;;;10.28;64.74;99232.84;1708170;84;20508;-80
2022/10/19 03:10:03;;;;;;;;;;;;;;;10.26;64.96;99237.30;1708396;84;22157;-81
2022/10/19 03:12:30;;;;;;;;;;;;;;;10.25;65.26;99224.22;1708224;84;20491;-82
2022/10/19 03:14:56;;;;;;;;;;;;;;;10.23;65.22;99226.43;1708270;84;20197;-81
2022/10/19 03:17:22;;;;;;;;;;;;;;;10.22;65.60;99223.86;1708180;84;20138;-81
2022/10/19 03:19:49;;;;;;;;;;;;;;;10.23;65.70;99229.53;1708165;84;20198;-81
2022/10/19 03:22:15;;;;;;;;;;;;;;;10.23;66.10;99223.80;1708361;84;21197;-81
2022/10/19 03:24:43;;;;;;;;;;;;;;;10.23;66.33;99210.66;1708241;84;20236;-80
2022/10/19 03:27:09;;;;;;;;;;;;;;;10.23;66.56;99228.21;1708087;84;20488;-81
2022/10/19 03:29:37;;;;;;;;;;;;;;;10.27;67.15;99228.52;1708169;84;20160;-82
2022/10/19 03:32:04;;;;;;;;;;;;;;;10.28;67.57;99217.53;1708758;84;20209;-80
2022/10/19 03:34:30;;;;;;;;;;;;;;;10.32;67.29;99228.34;1708432;84;21144;-81
2022/10/19 03:36:58;;;;;;;;;;;;;;;10.32;67.00;99222.66;1708616;84;20210;-83
2022/10/19 03:39:24;;;;;;;;;;;;;;;10.31;67.16;99227.47;1708275;84;20217;-81
2022/10/19 03:41:50;;;;;;;;;;;;;;;10.29;67.29;99224.05;1708192;84;20209;-80
2022/10/19 03:44:16;;;;;;;;;;;;;;;10.28;67.40;99217.06;1708748;84;20457;-82
2022/10/19 03:46:43;;;;;;;;;;;;;;;10.28;67.49;99206.55;1708331;84;21234;-81
2022/10/19 03:49:09;;;;;;;;;;;;;;;10.29;68.00;99201.70;1708706;84;20190;-81
2022/10/19 03:51:35;;;;;;;;;;;;;;;10.28;68.03;99201.28;1681648;84;20201;-81
2022/10/19 03:54:04;;;;;;;;;;;;;;;10.28;68.35;99198.66;1708615;84;20159;-81
2022/10/19 03:56:32;;;;;;;;;;;;;;;10.28;68.47;99207.86;1697817;84;20139;-81
2022/10/19 03:58:59;;;;;;;;;;;;;;;10.28;68.65;99207.86;1696001;84;21159;-80
2022/10/19 04:01:32;;;;;;;;;;;;;;;10.26;68.85;99208.38;1695824;84;20497;-81
2022/10/19 04:03:59;;;;;;;;;;;;;;;10.27;69.08;99217.12;1695644;84;20222;-81
2022/10/19 04:06:29;;;;;;;;;;;;;;;10.25;69.28;99210.59;1695959;84;20226;-81
2022/10/19 04:08:55;;;;;;;;;;;;;;;10.24;69.61;99215.48;1695441;84;20226;-81
2022/10/19 04:11:24;;;;;;;;;;;;;;;10.24;70.17;99226.00;1695991;84;21124;-81
2022/10/19 04:13:52;;;;;;;;;;;;;;;10.26;70.38;99233.36;1695619;84;20480;-81
2022/10/19 04:16:19;;;;;;;;;;;;;;;10.26;70.54;99230.73;1696071;84;20886;-81
2022/10/19 04:18:45;;;;;;;;;;;;;;;10.26;70.68;99227.26;1695528;84;20203;-82
2022/10/19 04:21:29;;;;;;;;;;;;;;;10.26;70.81;99225.94;1696057;84;20209;-81
2022/10/19 04:24:04;;;;;;;;;;;;;;;10.26;70.98;99224.16;1695797;84;20210;-82
2022/10/19 04:26:31;;;;;;;;;;;;;;;10.26;71.12;99216.27;1695676;84;20485;-81
2022/10/19 04:28:58;;;;;;;;;;;;;;;10.23;71.41;99221.64;1695683;84;20246;-81
2022/10/19 04:31:25;;;;;;;;;;;;;;;10.22;71.61;99221.23;1695603;84;20241;-81
2022/10/19 04:33:51;;;;;;;;;;;;;;;10.22;72.15;99218.59;1695562;84;20175;-81
2022/10/19 04:36:17;;;;;;;;;;;;;;;10.25;72.46;99218.95;1695660;84;21157;-82
2022/10/19 04:38:44;;;;;;;;;;;;;;;10.26;72.64;99222.00;1695375;84;20222;-82
2022/10/19 04:41:13;;;;;;;;;;;;;;;10.28;72.97;99220.16;1695503;84;20205;-82
2022/10/19 04:43:40;;;;;;;;;;;;;;;10.27;73.18;99204.84;1695450;84;20217;-81
2022/10/19 04:46:10;;;;;;;;;;;;;;;10.27;73.57;99212.73;1695723;84;20207;-81
2022/10/19 04:48:37;;;;;;;;;;;;;;;10.28;73.68;99211.80;1695840;84;21127;-81
2022/10/19 04:51:04;;;;;;;;;;;;;;;10.30;73.88;99207.33;1695610;84;20501;-81
2022/10/19 04:53:31;;;;;;;;;;;;;;;10.30;74.29;99214.38;1695790;84;20527;-81
2022/10/19 04:55:57;;;;;;;;;;;;;;;10.32;74.31;99226.59;1695481;84;20189;-80
2022/10/19 04:58:23;;;;;;;;;;;;;;;10.32;74.64;99233.61;1695666;84;20232;-80
2022/10/19 05:00:50;;;;;;;;;;;;;;;10.29;74.91;99225.36;1695839;84;21205;-82
2022/10/19 05:03:16;;;;;;;;;;;;;;;10.25;75.18;99222.43;1695613;84;20205;-81
2022/10/19 05:05:43;;;;;;;;;;;;;;;10.22;75.84;99219.91;1695851;84;20222;-81
2022/10/19 05:08:09;;;;;;;;;;;;;;;10.18;76.52;99217.86;1695577;84;20218;-81
2022/10/19 05:10:36;;;;;;;;;;;;;;;10.18;77.29;99236.73;1696060;84;20221;-81
2022/10/19 05:13:04;;;;;;;;;;;;;;;10.13;77.80;99255.77;1695713;84;20167;-80
2022/10/19 05:15:31;;;;;;;;;;;;;;;10.09;78.17;99250.23;1696067;84;20148;-81
2022/10/19 05:17:58;;;;;;;;;;;;;;;10.04;78.97;99263.08;1695834;84;20190;-81
2022/10/19 05:20:26;;;;;;;;;;;;;;;10.01;79.52;99267.13;1695626;84;20497;-82
2022/10/19 05:22:53;;;;;;;;;;;;;;;10.00;80.17;99269.80;1695633;84;20261;-81
2022/10/19 05:25:19;;;;;;;;;;;;;;;9.98;80.98;99275.11;1695726;84;21167;-81
2022/10/19 05:27:51;;;;;;;;;;;;;;;9.97;81.51;99257.65;1695797;84;20171;-81
2022/10/19 05:30:20;;;;;;;;;;;;;;;9.98;82.33;99246.67;1695984;84;20190;-81
2022/10/19 05:32:47;;;;;;;;;;;;;;;10.01;82.95;99238.67;1695894;84;21162;-80
2022/10/19 05:35:14;;;;;;;;;;;;;;;10.03;83.02;99230.27;1695857;84;20213;-81
2022/10/19 05:37:40;;;;;;;;;;;;;;;10.09;83.43;99235.78;1695990;84;21138;-81
2022/10/19 05:40:07;;;;;;;;;;;;;;;10.12;83.69;99247.47;1695695;84;20171;-81
2022/10/19 05:42:35;;;;;;;;;;;;;;;10.15;84.40;99263.13;1695953;84;20168;-82
2022/10/19 05:45:02;;;;;;;;;;;;;;;10.17;85.13;99282.33;1695617;84;20274;-81
2022/10/19 05:47:28;;;;;;;;;;;;;;;10.16;85.65;99291.15;1695879;84;20237;-81
2022/10/19 05:49:55;;;;;;;;;;;;;;;10.15;86.28;99310.45;1695645;84;21126;-81
2022/10/19 05:52:21;;;;;;;;;;;;;;;10.13;86.63;99299.14;1695643;84;20195;-80
2022/10/19 05:54:48;;;;;;;;;;;;;;;10.15;86.81;99290.27;1695856;84;20471;-80
2022/10/19 05:57:14;;;;;;;;;;;;;;;10.18;87.22;99287.53;1695604;84;20222;-81
2022/10/19 05:59:40;;;;;;;;;;;;;;;10.21;87.20;99286.58;1695627;84;20237;-81
2022/10/19 06:02:11;;;;;;;;;;;;;;;10.24;87.34;99291.73;1695697;84;21589;-81
2022/10/19 06:04:38;;;;;;;;;;;;;;;10.28;87.39;99285.43;1695521;84;20361;-81
2022/10/19 06:07:04;;;;;;;;;;;;;;;10.35;87.61;99302.72;1695816;84;20351;-80
2022/10/19 06:09:34;;;;;;;;;;;;;;;10.40;87.63;99298.14;1696185;84;20178;-81
2022/10/19 06:11:59;;;;;;;;;;;;;;;10.48;87.99;99299.66;1696015;84;20512;-79
2022/10/19 06:14:25;;;;;;;;;;;;;;;10.54;88.22;99293.70;1695990;84;21243;-81
2022/10/19 06:16:51;;;;;;;;;;;;;;;10.61;88.55;99303.53;1695800;84;20135;-80
2022/10/19 06:19:18;;;;;;;;;;;;;;;10.69;88.57;99298.84;1695647;84;20147;-81
2022/10/19 06:21:46;;;;;;;;;;;;;;;10.76;88.59;99292.41;1695539;84;20194;-82
2022/10/19 06:24:12;;;;;;;;;;;;;;;10.81;88.40;99309.34;1695854;84;20229;-81
2022/10/19 06:26:38;;;;;;;;;;;;;;;10.86;88.08;99313.09;1695981;84;21058;-81
2022/10/19 06:29:04;;;;;;;;;;;;;;;10.89;87.72;99311.66;1695500;84;20265;-81
2022/10/19 06:31:32;;;;;;;;;;;;;;;10.92;87.28;99314.17;1695770;84;20191;-80
2022/10/19 06:33:59;;;;;;;;;;;;;;;10.96;86.79;99322.34;1695713;84;20214;-80
2022/10/19 06:36:27;;;;;;;;;;;;;;;10.98;86.41;99321.84;1696118;84;20209;-79
2022/10/19 06:38:55;;;;;;;;;;;;;;;10.99;85.86;99324.86;1695642;84;21152;-81
2022/10/19 06:41:22;;;;;;;;;;;;;;;11.01;85.41;99323.48;1695540;84;20233;-81
2022/10/19 06:43:51;;;;;;;;;;;;;;;11.01;85.10;99328.31;1696083;84;20146;-79
2022/10/19 06:46:22;;;;;;;;;;;;;;;11.01;84.88;99328.31;1695727;84;20857;-80
2022/10/19 06:48:52;;;;;;;;;;;;;;;11.04;84.60;99333.43;1695724;84;20573;-80
2022/10/19 06:51:19;;;;;;;;;;;;;;;11.08;84.15;99334.20;1695869;84;21127;-81
2022/10/19 06:53:45;;;;;;;;;;;;;;;11.08;83.34;99338.98;1696081;84;20890;-81
2022/10/19 06:56:11;;;;;;;;;;;;;;;11.09;82.98;99343.31;1695692;83;20203;-81
2022/10/19 06:58:39;;;;;;;;;;;;;;;11.10;82.96;99345.52;1695328;84;20144;-81
2022/10/19 07:01:06;;;;;;;;;;;;;;;11.13;82.93;99351.98;1695876;84;20442;-80
2022/10/19 07:03:33;;;;;;;;;;;;;;;11.17;82.91;99354.03;1695872;84;21853;-82
2022/10/19 07:06:03;;;;;;;;;;;;;;;11.20;83.00;99357.86;1695846;84;20281;-81
2022/10/19 07:08:31;;;;;;;;;;;;;;;11.21;83.06;99354.30;1695685;84;20202;-81
2022/10/19 07:11:00;;;;;;;;;;;;;;;11.22;82.70;99360.82;1695640;84;21159;-81
2022/10/19 07:13:27;;;;;;;;;;;;;;;11.25;82.38;99354.59;1695733;84;20566;-80
2022/10/19 07:15:57;;;;;;;;;;;;;;;11.29;82.17;99358.80;1695652;84;20131;-81
2022/10/19 07:18:24;;;;;;;;;;;;;;;11.33;81.57;99359.06;1695577;84;20151;-81
2022/10/19 07:20:57;;;;;;;;;;;;;;;11.35;81.18;99355.93;1695846;84;20221;-80
2022/10/19 07:23:24;;;;;;;;;;;;;;;11.37;81.15;99355.40;1695512;84;20501;-80
2022/10/19 07:25:52;;;;;;;;;;;;;;;11.42;81.19;99356.06;1696046;84;20222;-81
2022/10/19 07:28:21;;;;;;;;;;;;;;;11.47;81.10;99347.52;1695669;84;22738;-81
2022/10/19 07:30:48;;;;;;;;;;;;;;;11.55;81.16;99346.33;1695527;84;20186;-82
2022/10/19 07:33:14;;;;;;;;;;;;;;;11.62;81.12;99346.50;1695890;84;20210;-80
2022/10/19 07:35:40;;;;;;;;;;;;;;;11.67;80.49;99340.11;1695675;84;20481;-78
2022/10/19 07:38:07;;;;;;;;;;;;;;;11.71;79.96;99339.04;1695847;84;20209;-80
2022/10/19 07:40:34;;;;;;;;;;;;;;;11.72;79.66;99342.55;1695707;84;21068;-82
2022/10/19 07:43:00;;;;;;;;;;;;;;;11.75;79.49;99340.23;1695749;84;20226;-81
2022/10/19 07:45:27;;;;;;;;;;;;;;;11.79;79.66;99338.73;1695792;84;20159;-81
2022/10/19 07:47:53;;;;;;;;;;;;;;;11.87;79.76;99343.22;1695820;84;20649;-79
2022/10/19 07:50:23;;;;;;;;;;;;;;;11.94;79.33;99340.36;1695603;84;20234;-81
2022/10/19 07:52:51;;;;;;;;;;;;;;;11.98;79.30;99339.29;1695565;84;22620;-83
2022/10/19 07:55:18;;;;;;;;;;;;;;;12.01;79.00;99338.69;1695544;84;20214;-82
2022/10/19 07:57:47;;;;;;;;;;;;;;;12.01;78.87;99335.20;1704708;84;20159;-81
2022/10/19 08:00:15;;;;;;;;;;;;;;;12.04;78.70;99337.72;1708558;82;20489;-81
2022/10/19 08:02:43;;;;;;;;;;;;;;;12.05;78.78;99338.09;1708486;84;20782;-81
2022/10/19 08:05:09;;;;;;;;;;;;;;;12.05;78.52;99331.50;1708855;84;21214;-80
2022/10/19 08:07:38;;;;;;;;;;;;;;;12.03;78.34;99330.72;1708210;84;20197;-81
2022/10/19 08:10:05;;;;;;;;;;;;;;;12.03;78.06;99330.25;1708203;84;20210;-81
2022/10/19 08:12:34;;;;;;;;;;;;;;;12.01;78.03;99319.39;1708206;84;20225;-80
2022/10/19 08:15:00;;;;;;;;;;;;;;;11.97;77.64;99322.63;1708425;84;20452;-80
2022/10/19 08:17:26;;;;;;;;;;;;;;;11.94;77.83;99322.75;1708354;84;21130;-81
2022/10/19 08:19:53;;;;;;;;;;;;;;;11.88;77.76;99323.85;1708226;84;20182;-81
2022/10/19 08:22:20;;;;;;;;;;;;;;;11.87;77.81;99331.35;1708297;84;20220;-81
2022/10/19 08:24:47;;;;;;;;;;;;;;;11.90;77.77;99333.86;1708311;84;20164;-79
2022/10/19 08:27:15;;;;;;;;;;;;;;;11.93;77.42;99330.72;1682473;84;20170;-81
2022/10/19 08:29:43;;;;;;;;;;;;;;;11.89;77.27;99325.55;1708379;84;20213;-81
2022/10/19 08:32:09;;;;;;;;;;;;;;;11.92;77.40;99329.00;1708456;84;20212;-81
2022/10/19 08:34:36;;;;;;;;;;;;;;;11.92;77.46;99322.41;1708130;83;20289;-83
2022/10/19 08:37:03;;;;;;;;;;;;;;;11.93;77.76;99326.77;1708194;84;20210;-79
2022/10/19 08:39:30;;;;;;;;;;;;;;;11.97;77.86;99322.63;1708072;84;20226;-81
2022/10/19 08:42:06;;;;;;;;;;;;;;;12.01;77.83;99320.70;1708342;84;21151;-82
2022/10/19 08:44:42;;;;;;;;;;;;;;;12.01;77.50;99328.14;1706008;84;20592;-80
2022/10/19 08:47:40;;;;;;;;;;;;;;;12.02;76.75;99326.35;1707662;84;20155;-81
2022/10/19 08:50:10;;;;;;;;;;;;;;;12.01;76.68;99333.42;1708277;84;20208;-81
2022/10/19 08:52:36;;;;;;;;;;;;;;;12.04;76.00;99329.80;1707737;84;20205;-81
2022/10/19 08:55:14;;;;;;;;;;;;;;;12.10;76.00;99336.11;1708367;82;21184;-81
2022/10/19 08:57:56;;;;;;;;;;;;;;;12.14;75.69;99331.55;1701402;84;20198;-80
2022/10/19 09:00:53;;;;;;;;;;;;;;;12.16;75.06;99346.41;1695894;84;20143;-82
2022/10/19 09:03:49;;;;;;;;;;;;;;;12.14;75.09;99337.70;1695940;84;20190;-80
2022/10/19 09:06:28;;;;;;;;;;;;;;;12.15;75.09;99339.40;1695804;84;20228;-81
2022/10/19 09:08:54;;;;;;;;;;;;;;;12.13;74.91;99338.62;1695901;84;21192;-81
2022/10/19 09:11:26;;;;;;;;;;;;;;;12.15;74.96;99334.12;1695783;84;20251;-81
2022/10/19 09:14:06;;;;;;;;;;;;;;;12.19;74.96;99323.85;1694739;84;20353;-80
2022/10/19 09:16:34;;;;;;;;;;;;;;;12.23;74.78;99324.09;1695709;84;20207;-81
2022/10/19 09:19:04;;;;;;;;;;;;;;;12.31;74.61;99325.56;1695705;84;20537;-81
2022/10/19 09:21:52;;;;;;;;;;;;;;;12.34;74.67;99316.16;1695433;84;21155;-82
2022/10/19 09:24:29;;;;;;;;;;;;;;;12.44;75.15;99316.16;1696003;84;20694;-79
2022/10/19 09:26:57;;;;;;;;;;;;;;;12.56;74.54;99312.11;1695843;84;20162;-81
2022/10/19 09:29:27;;;;;;;;;;;;;;;12.65;74.21;99314.31;1696228;84;20175;-83
2022/10/19 09:31:55;;;;;;;;;;;;;;;12.75;73.66;99311.62;1695380;84;20153;-81
2022/10/19 09:34:24;;;;;;;;;;;;;;;12.83;73.20;99312.12;1695683;84;21245;-82
2022/10/19 09:36:56;;;;;;;;;;;;;;;12.85;72.73;99317.34;1695735;84;20234;-81
2022/10/19 09:39:23;;;;;;;;;;;;;;;12.82;72.45;99310.88;1695986;84;20226;-81
2022/10/19 09:41:51;;;;;;;;;;;;;;;12.75;72.40;99312.10;1695654;84;20136;-82
2022/10/19 09:44:18;;;;;;;;;;;;;;;12.69;72.82;99305.78;1674150;84;20197;-81
2022/10/19 09:46:50;;;;;;;;;;;;;;;12.61;72.89;99301.72;1695566;84;22277;-81
2022/10/19 09:49:15;;;;;;;;;;;;;;;12.53;73.42;99303.85;1695962;84;20123;-83
2022/10/19 09:51:50;;;;;;;;;;;;;;;12.49;73.61;99289.55;1695740;84;20670;-82
2022/10/19 09:54:25;;;;;;;;;;;;;;;12.48;73.50;99290.48;1695779;84;20226;-85
2022/10/19 09:56:53;;;;;;;;;;;;;;;12.44;73.18;99298.55;1695915;83;20203;-82
2022/10/19 09:59:24;;;;;;;;;;;;;;;12.41;73.53;99295.19;1708274;84;21212;-81
2022/10/19 10:02:00;;;;;;;;;;;;;;;12.38;73.96;99292.69;1708299;84;20149;-81
2022/10/19 10:04:26;;;;;;;;;;;;;;;12.37;73.88;99300.20;1701610;82;20631;-81
2022/10/19 10:06:53;;;;;;;;;;;;;;;12.36;74.11;99299.83;1708202;84;20204;-81
2022/10/19 10:09:26;;;;;;;;;;;;;;;12.33;74.32;99292.05;1682517;84;20194;-81
2022/10/19 10:11:54;;;;;;;;;;;;;;;12.36;74.13;99295.39;1708512;84;21758;-82
2022/10/19 10:14:31;;;;;;;;;;;;;;;12.40;74.10;99293.47;1708362;84;20213;-79
2022/10/19 10:17:06;;;;;;;;;;;;;;;12.44;74.08;99284.50;1708365;84;20205;-82
2022/10/19 10:19:34;;;;;;;;;;;;;;;12.48;73.90;99282.09;1708529;84;20516;-82
2022/10/19 10:22:02;;;;;;;;;;;;;;;12.54;73.84;99283.15;1708589;84;20177;-80
2022/10/19 10:24:30;;;;;;;;;;;;;;;12.60;74.15;99278.88;1708020;84;21166;-81
2022/10/19 10:26:58;;;;;;;;;;;;;;;12.69;72.77;99277.59;1707905;82;20201;-82
2022/10/19 10:29:26;;;;;;;;;;;;;;;12.73;72.40;99277.01;1708179;84;20527;-80
2022/10/19 10:31:55;;;;;;;;;;;;;;;12.78;71.78;99269.72;1708490;84;20143;-81
2022/10/19 10:34:28;;;;;;;;;;;;;;;12.87;70.90;99275.02;1708361;84;20205;-82
2022/10/19 10:36:56;;;;;;;;;;;;;;;12.88;70.58;99265.70;1708677;84;20163;-80
2022/10/19 10:39:24;;;;;;;;;;;;;;;12.91;70.45;99265.56;1708285;84;20178;-81
2022/10/19 10:41:51;;;;;;;;;;;;;;;12.96;70.00;99271.48;1708740;84;20203;-78
2022/10/19 10:44:22;;;;;;;;;;;;;;;13.00;68.98;99266.42;1708124;84;20225;-81
2022/10/19 10:47:00;;;;;;;;;;;;;;;13.00;67.32;99267.75;1708599;84;20250;-82
2022/10/19 10:49:35;;;;;;;;;;;;;;;13.06;67.02;99265.73;1708437;84;21799;-83
2022/10/19 10:52:12;;;;;;;;;;;;;;;13.20;65.98;99264.61;1707890;84;20133;-82
2022/10/19 10:54:38;;;;;;;;;;;;;;;13.42;66.10;99260.93;1682092;84;20205;-80
2022/10/19 10:57:14;;;;;;;;;;;;;;;13.63;62.39;99269.06;1708598;84;20225;-81
2022/10/19 10:59:45;;;;;;;;;;;;;;;13.67;61.31;99265.34;1708342;84;20205;-81
2022/10/19 11:02:36;;;;;;;;;;;;;;;13.65;60.60;99255.33;1708591;84;21121;-82
2022/10/19 11:05:27;;;;;;;;;;;;;;;13.66;59.76;99254.37;1708080;84;20226;-81
2022/10/19 11:07:57;;;;;;;;;;;;;;;13.80;57.79;99250.16;1708629;84;20469;-80
2022/10/19 11:10:31;;;;;;;;;;;;;;;14.08;57.65;99243.80;1708410;82;20213;-80
2022/10/19 11:13:36;;;;;;;;;;;;;;;14.45;56.29;99231.21;1704313;84;20213;-81
2022/10/19 11:16:12;;;;;;;;;;;;;;;14.82;55.06;99233.64;1708344;82;21185;-81
2022/10/19 11:18:51;;;;;;;;;;;;;;;15.07;53.60;99233.57;1708425;84;20201;-82
2022/10/19 11:21:32;;;;;;;;;;;;;;;15.08;53.02;99224.22;1708325;84;20217;-81
2022/10/19 11:24:14;;;;;;;;;;;;;;;15.00;53.59;99218.02;1708448;82;20209;-80
2022/10/19 11:26:44;;;;;;;;;;;;;;;14.97;52.69;99217.34;1708273;84;20138;-81
2022/10/19 11:29:26;;;;;;;;;;;;;;;14.90;52.02;99219.97;1708275;84;21297;-84
2022/10/19 11:31:54;;;;;;;;;;;;;;;14.76;51.95;99213.66;1708345;84;20201;-82
2022/10/19 11:34:36;;;;;;;;;;;;;;;14.55;51.53;99217.48;1707887;84;20221;-83
2022/10/19 11:37:06;;;;;;;;;;;;;;;14.28;52.22;99210.13;1708348;84;20544;-82
2022/10/19 11:39:53;;;;;;;;;;;;;;;14.03;53.34;99207.48;1707700;84;20599;-81
2022/10/19 11:42:26;;;;;;;;;;;;;;;13.86;54.04;99203.56;1707534;82;21812;-81
2022/10/19 11:45:12;;;;;;;;;;;;;;;13.85;54.40;99201.84;1708303;84;20182;-82
2022/10/19 11:47:50;;;;;;;;;;;;;;;13.87;54.85;99191.59;1708111;84;21021;-81
2022/10/19 11:50:20;;;;;;;;;;;;;;;14.02;54.83;99178.02;1708033;84;20197;-81
2022/10/19 11:53:16;;;;;;;;;;;;;;;14.31;54.58;99172.91;1708350;82;20249;-83
2022/10/19 11:55:53;;;;;;;;;;;;;;;14.58;53.98;99180.25;1708225;84;21140;-81
2022/10/19 11:58:41;;;;;;;;;;;;;;;14.76;52.57;99179.23;1704838;84;20504;-83
2022/10/19 12:01:20;;;;;;;;;;;;;;;14.75;52.45;99172.22;1708452;84;20174;-82
2022/10/19 12:03:53;;;;;;;;;;;;;;;14.62;52.71;99169.89;1704145;84;20143;-81
2022/10/19 12:06:47;;;;;;;;;;;;;;;14.55;52.94;99164.53;1708362;84;20135;-80
2022/10/19 12:09:24;;;;;;;;;;;;;;;14.50;53.47;99156.36;1696478;84;21123;-80
2022/10/19 12:12:01;;;;;;;;;;;;;;;14.44;52.64;99160.70;1696423;84;20218;-81
2022/10/19 12:14:34;;;;;;;;;;;;;;;14.42;52.90;99161.71;1702267;84;20627;-82
2022/10/19 12:17:10;;;;;;;;;;;;;;;14.38;52.70;99161.03;1708581;84;20199;-81
2022/10/19 12:19:39;;;;;;;;;;;;;;;14.35;52.72;99151.94;1708248;84;20146;-81
2022/10/19 12:22:06;;;;;;;;;;;;;;;14.42;53.26;99155.94;1708349;84;21225;-82
2022/10/19 12:24:33;;;;;;;;;;;;;;;14.57;50.90;99156.03;1708298;84;20189;-80
2022/10/19 12:27:00;;;;;;;;;;;;;;;14.58;49.98;99157.75;1708486;84;20221;-84
2022/10/19 12:29:29;;;;;;;;;;;;;;;14.52;50.98;99151.47;1708308;82;20193;-83
2022/10/19 12:31:55;;;;;;;;;;;;;;;14.41;51.71;99149.44;1708304;84;20158;-82
2022/10/19 12:34:56;;;;;;;;;;;;;;;14.26;52.46;99143.20;1708667;84;20155;-79
2022/10/19 12:37:29;;;;;;;;;;;;;;;14.12;53.10;99159.82;1708255;84;20571;-81
2022/10/19 12:40:18;;;;;;;;;;;;;;;13.96;53.77;99144.43;1707004;82;20190;-82
2022/10/19 12:43:08;;;;;;;;;;;;;;;13.82;54.01;99146.47;1708569;84;20214;-83
2022/10/19 12:45:40;;;;;;;;;;;;;;;13.70;54.69;99135.64;1708848;84;20197;-79
2022/10/19 12:48:19;;;;;;;;;;;;;;;13.61;54.37;99138.77;1708229;84;21163;-78
2022/10/19 12:50:52;;;;;;;;;;;;;;;13.56;53.11;99143.44;1708251;84;20147;-80
2022/10/19 12:53:27;;;;;;;;;;;;;;;13.53;51.70;99133.02;1708386;84;20205;-79
2022/10/19 12:56:24;;;;;;;;;;;;;;;13.55;51.39;99134.67;1708486;84;20197;-81
2022/10/19 12:58:53;;;;;;;;;;;;;;;13.72;50.70;99131.13;1708322;84;20174;-81
2022/10/19 13:01:37;;;;;;;;;;;;;;;14.21;50.07;99122.77;1682700;84;20178;-81
2022/10/19 13:04:15;;;;;;;;;;;;;;;14.56;49.45;99129.16;1708123;84;20257;-82
2022/10/19 13:06:47;;;;;;;;;;;;;;;14.61;48.50;99131.13;1708853;84;20201;-82